Hayward, WI

10:21 AM CST on November 23, 2014 (GMT -0600)
Sawyer County | Change Station
CLOSE
Current Station
Airport
Location: Hayward,
Elevation: 1214 ft
Nearby Weather Stations
Active Advisory: Dense Fog Advisory

Elev 1214 ft 46.02 °N, 91.45 °W | Updated 28 minutes ago

Light Rain
Light Rain Fog
44 °F
Feels Like 39 °F
N
10
Wind Variable Wind from SSW

Today
High -- | Low -- °F
--% Chance of Precip.
Yesterday
High -- | Low -- °F
Precip. -- in
7:17 AM 4:26 PM
New Moon, 2% visible
Pressure 29.49 in
Visibility 0.2 miles
Clouds Overcast 300 ft
Windchill 39 °F
Dew Point 43 °F
Humidity 96%
Rainfall 0.00 in
Snow Depth Not available.
UV 0 out of 12
Pollen .10 out of 12
Air Quality Not available.
Flu Activity Not available.
METAR KHYR 231553Z AUTO 20009KT 1/4SM -RA FG OVC003 07/06 A2946 RMK AO2 SLP985 P0000 T00670061

More Conditions Fewer Conditions

Pressure 29.49 in
Visibility 0.2 miles
Clouds Overcast 300 ft
Windchill 39 °F
Dew Point 43 °F
Humidity 96%
Rainfall 0.00 in
Snow Depth Not available.
UV 0 out of 12
Pollen .10 out of 12
Air Quality Not available.
Flu Activity Not available.
METAR KHYR 231553Z AUTO 20009KT 1/4SM -RA FG OVC003 07/06 A2946 RMK AO2 SLP985 P0000 T00670061

More Conditions Fewer Conditions

10-Day Weather Forecast

Almanac

Astronomy

Nov. 23, 2014 Rise Set
Actual Time
Civil Twilight
Nautical Twilight
Astronomical Twilight
Moon
Length of Visible Light
Length of Day
Tomorrow will be .
, % of the Moon is Illuminated

Today's Extremes

State Highs State Lows

Community

WunderPhotos

Upload Photos

1,773,089 photos uploaded!

WunderBlogs® & News

Nearby

Air Quality

  Air Quality AQ Index Pollutant
Not available.

Snow Depth

Station Depth Elevation

Earthquake Activity

City Distance Mag. Time & Date
Minimum magnitude displayed is 2.5.

Coastal Water Temperatures

Place Temperature

Nearby Weather Stations